Flight Track Log - Related Links

Times and Time Zones

All times are in EDT time to prevent confusion due to time zone crossing. See the SKW6345 flight status page for this flight to view local times or setup timezone preferences in your user account.

Time Position Orientation Groundspeed Altitude Reporting Facility
EDT Latitude Longitude Course Direction KTS MPH feet Rate Location/Type
Fri 11:15:32 AM 37.6342 -122.3628 38° Northeast 155 178 33,000  Level Oakland Center
Fri 11:16:10 AM 37.6500 -122.3333 56° Northeast 173 199 1,800 -18,717 Descending Northern Cal TRACON
Fri 11:17:04 AM 37.7000 -122.3000 28° Northeast 198 228 4,300 2,507 Climbing Northern Cal TRACON
Fri 11:18:00 AM 37.6323 -122.4176 120° Southeast  Level FlightAware Approximate
Fri 11:18:36 AM 37.7569 -122.2181 49° Northeast 222 255 7,900  Level Oakland Center
Fri 11:19:00 AM 37.6846 -122.2988 38° Northeast  Level FlightAware Approximate
Fri 11:19:37 AM 37.8100 -122.1703 35° Northeast 232 267 10,400  Level Oakland Center
Fri 11:20:00 AM 37.7875 -122.1958 38° Northeast  Level FlightAware Approximate
Fri 11:20:38 AM 37.8800 -122.1000 38° Northeast 271 312 12,400  Level Oakland Center
Fri 11:21:40 AM 37.9475 -122.0347 37° Northeast 306 352 14,000 1,561 Climbing Oakland Center
Fri 11:22:41 AM 38.0203 -121.9653 37° Northeast 327 376 15,600 1,574 Climbing Oakland Center
Fri 11:23:42 AM 38.0964 -121.8919 37° Northeast 342 394 17,200 1,525 Climbing Oakland Center
Fri 11:24:43 AM 38.1719 -121.8192 37° Northeast 343 395 18,700 1,415 Climbing Oakland Center
Fri 11:25:45 AM 38.2475 -121.7442 38° Northeast 345 397 20,100 1,268 Climbing Oakland Center
Fri 11:26:46 AM 38.3256 -121.6672 38° Northeast 354 407 21,300 1,180 Climbing Oakland Center
Fri 11:27:47 AM 38.4056 -121.5900 37° Northeast 361 415 22,500 1,268 Climbing Oakland Center
Fri 11:28:49 AM 38.4869 -121.4756 48° Northeast 366 421 23,900 1,171 Climbing Oakland Center
Fri 11:29:50 AM 38.5500 -121.3700 53° Northeast 372 428 24,900 984 Climbing Oakland Center
Fri 11:30:51 AM 38.6111 -121.2625 54° Northeast 375 432 25,900 984 Climbing Oakland Center
Fri 11:31:52 AM 38.6758 -121.1531 53° Northeast 386 444 26,900 878 Climbing Oakland Center
Fri 11:32:54 AM 38.7408 -121.0394 54° Northeast 393 452 27,700 683 Climbing Oakland Center
Fri 11:33:55 AM 38.8078 -120.9236 53° Northeast 401 461 28,300 590 Climbing Oakland Center
Fri 11:34:56 AM 38.8775 -120.8014 54° Northeast 415 478 28,900 585 Climbing Oakland Center
Fri 11:35:58 AM 38.9489 -120.6792 53° Northeast 426 490 29,500 585 Climbing Oakland Center
Fri 11:36:59 AM 39.0208 -120.5544 53° Northeast 432 497 30,100 590 Climbing Oakland Center
Fri 11:38:00 AM 39.0939 -120.4278 53° Northeast 437 503 30,700 683 Climbing Oakland Center
Fri 11:39:02 AM 39.1800 -120.2750 54° Northeast 440 506 31,500 683 Climbing Oakland Center
Fri 11:40:03 AM 39.2533 -120.1464 54° Northeast 444 511 32,100 541 Climbing Oakland Center
Fri 11:41:04 AM 39.3203 -120.0342 52° Northeast 440 506 32,600 439 Climbing Oakland Center
Fri 11:42:06 AM 39.3914 -119.9067 54° Northeast 436 502 33,000 195 Climbing Oakland Center
Fri 11:43:07 AM 39.4619 -119.7819 54° Northeast 429 494 33,000  Level Oakland Center
Fri 11:44:08 AM 39.5575 -119.6503 47° Northeast 421 484 33,000  Level Oakland Center
Fri 11:45:10 AM 39.6614 -119.5836 26° Northeast 417 480 33,000  Level Oakland Center
Fri 11:46:11 AM 39.7686 -119.5242 23° Northeast 417 480 33,000  Level Oakland Center
Fri 11:47:13 AM 39.8789 -119.4639 23° Northeast 423 487 33,000  Level Oakland Center
Fri 11:48:14 AM 39.9864 -119.4017 24° Northeast 422 486 33,000  Level Oakland Center
Fri 11:49:15 AM 40.0947 -119.3417 23° Northeast 421 484 33,000  Level Oakland Center
Fri 11:50:17 AM 40.2044 -119.2783 24° Northeast 426 490 33,000  Level Oakland Center
Fri 11:51:18 AM 40.3150 -119.2156 23° Northeast 430 495 33,000  Level Oakland Center
Fri 11:52:19 AM 40.4231 -119.1531 24° Northeast 426 490 33,000  Level Oakland Center
Fri 11:53:21 AM 40.5319 -119.0908 23° Northeast 425 489 33,000  Level Oakland Center
Fri 11:54:11 AM 40.6386 -119.0308 23° Northeast 427 491 33,000  Level Salt Lake Center
Fri 11:55:13 AM 40.7417 -118.9722 23° Northeast 423 487 33,000  Level Salt Lake Center
Fri 11:56:15 AM 40.8456 -118.9117 24° Northeast 425 489 33,000  Level Salt Lake Center
Fri 11:57:17 AM 40.9653 -118.8428 23° Northeast 421 484 33,000  Level Salt Lake Center
Fri 11:58:19 AM 41.0669 -118.7825 24° Northeast 418 481 33,000  Level Salt Lake Center
Fri 11:59:21 AM 41.1867 -118.7131 24° Northeast 419 482 33,000  Level Salt Lake Center
Fri 12:00:23 PM 41.2881 -118.6539 24° Northeast 415 478 33,000  Level Salt Lake Center
Fri 12:01:25 PM 41.4061 -118.5844 24° Northeast 414 476 33,000  Level Salt Lake Center
Fri 12:02:27 PM 41.5067 -118.5242 24° Northeast 413 475 33,000  Level Salt Lake Center
Fri 12:03:29 PM 41.6239 -118.4539 24° Northeast 413 475 33,000  Level Salt Lake Center
Fri 12:04:31 PM 41.7239 -118.3944 24° Northeast 410 472 33,000  Level Salt Lake Center
Fri 12:05:33 PM 41.8397 -118.3253 24° Northeast 409 471 33,000  Level Salt Lake Center
Fri 12:06:35 PM 41.9392 -118.2667 24° Northeast 406 467 33,000  Level Salt Lake Center
Fri 12:07:37 PM 42.0383 -118.2072 24° Northeast 406 467 33,000  Level Salt Lake Center
Fri 12:08:39 PM 42.1533 -118.1372 24° Northeast 405 466 33,000  Level Salt Lake Center
Fri 12:09:41 PM 42.2619 -118.0664 26° Northeast 405 466 33,000  Level Salt Lake Center
Fri 12:10:43 PM 42.3603 -118.0089 23° Northeast 402 463 33,000  Level Salt Lake Center
Fri 12:11:45 PM 42.4744 -117.9375 25° Northeast 403 464 33,000  Level Salt Lake Center
Fri 12:12:47 PM 42.5706 -117.8753 25° Northeast 402 463 33,000  Level Salt Lake Center
Fri 12:13:49 PM 42.6508 -117.7522 48° Northeast 383 441 33,000  Level Salt Lake Center
Fri 12:14:51 PM 42.7133 -117.6392 53° Northeast 388 447 33,000  Level Salt Lake Center
Fri 12:15:53 PM 42.7844 -117.5072 54° Northeast 387 445 33,000  Level Salt Lake Center
Fri 12:16:55 PM 42.8464 -117.3931 53° Northeast 390 449 33,000  Level Salt Lake Center
Fri 12:17:57 PM 42.9078 -117.2806 53° Northeast 388 447 33,000  Level Salt Lake Center
Fri 12:18:59 PM 42.9794 -117.1461 54° Northeast 391 450 33,000  Level Salt Lake Center
Fri 12:20:02 PM 43.0406 -117.0317 54° Northeast 390 449 33,000  Level Salt Lake Center
Fri 12:21:04 PM 43.1119 -116.8981 54° Northeast 389 448 33,000  Level Salt Lake Center
Fri 12:22:06 PM 43.1722 -116.7825 54° Northeast 390 449 33,000  Level Salt Lake Center
Fri 12:23:08 PM 43.2433 -116.6489 54° Northeast 390 449 33,000  Level Salt Lake Center
Fri 12:24:10 PM 43.3031 -116.5339 54° Northeast 389 448 33,000  Level Salt Lake Center
Fri 12:25:12 PM 43.3731 -116.4000 54° Northeast 388 447 33,000  Level Salt Lake Center
Fri 12:26:14 PM 43.4325 -116.2858 54° Northeast 385 443 33,000  Level Salt Lake Center
Fri 12:27:16 PM 43.5025 -116.1522 54° Northeast 386 444 33,000  Level Salt Lake Center
Fri 12:28:18 PM 43.5617 -116.0369 55° Northeast 385 443 33,000  Level Salt Lake Center
Fri 12:29:20 PM 43.6308 -115.9017 55° Northeast 388 447 33,000  Level Salt Lake Center
Fri 12:30:22 PM 43.6897 -115.7864 55° Northeast 385 443 33,000  Level Salt Lake Center
Fri 12:31:24 PM 43.7569 -115.6525 55° Northeast 381 438 33,000  Level Salt Lake Center
Fri 12:32:26 PM 43.8150 -115.5372 55° Northeast 382 440 33,000  Level Salt Lake Center
Fri 12:33:28 PM 43.8822 -115.4056 55° Northeast 376 433 33,000  Level Salt Lake Center
Fri 12:34:30 PM 43.9389 -115.2917 55° Northeast 377 434 33,000  Level Salt Lake Center
Fri 12:35:32 PM 44.0056 -115.1589 55° Northeast 377 434 33,000  Level Salt Lake Center
Fri 12:36:34 PM 44.0619 -115.0453 55° Northeast 375 432 33,000  Level Salt Lake Center
Fri 12:37:36 PM 44.1278 -114.9117 56° Northeast 375 432 33,000  Level Salt Lake Center
Fri 12:38:38 PM 44.1833 -114.7964 56° Northeast 375 432 33,000  Level Salt Lake Center
Fri 12:40:00 PM 44.2648 -114.6222 57° Northeast  Level FlightAware Approximate
Fri 12:40:42 PM 44.3053 -114.5472 57° Northeast 376 433 33,000  Level Salt Lake Center
Fri 12:41:44 PM 44.3625 -114.4331 55° Northeast 376 433 33,000  Level Salt Lake Center
Fri 12:42:46 PM 44.4283 -114.2969 56° Northeast 378 435 33,000  Level Salt Lake Center
Fri 12:43:48 PM 44.4831 -114.1825 56° Northeast 372 428 33,000  Level Salt Lake Center
Fri 12:44:50 PM 44.5475 -114.0478 56° Northeast 373 429 33,000  Level Salt Lake Center
Fri 12:45:52 PM 44.6078 -113.9189 57° Northeast 374 430 33,000  Level Salt Lake Center
Fri 12:46:54 PM 44.6631 -113.8031 56° Northeast 373 429 33,000 -481 Level Salt Lake Center
Fri 12:48:59 PM 44.7825 -113.5497 56° Northeast 379 436 31,500 -866 Descending Salt Lake Center
Fri 12:50:01 PM 44.8467 -113.4183 55° Northeast 365 420 30,300 -1,161 Descending Salt Lake Center
Fri 12:51:03 PM 44.8956 -113.3103 57° Northeast 348 400 29,100 -1,113 Descending Salt Lake Center
Fri 12:52:05 PM 44.9436 -113.2075 57° Northeast 331 381 28,000 -1,210 Descending Salt Lake Center
Fri 12:53:07 PM 44.9986 -113.0900 56° Northeast 321 369 26,600 -1,210 Descending Salt Lake Center
Fri 12:54:09 PM 45.0433 -112.9936 57° Northeast 309 356 25,500 -1,210 Descending Salt Lake Center
Fri 12:55:11 PM 45.0944 -112.8819 57° Northeast 306 352 24,100 -1,210 Descending Salt Lake Center
Fri 12:56:13 PM 45.1411 -112.7814 57° Northeast 315 362 23,000 -1,210 Descending Salt Lake Center
Fri 12:57:15 PM 45.1950 -112.6628 57° Northeast 318 366 21,600 -1,210 Descending Salt Lake Center
Fri 12:58:17 PM 45.2411 -112.5619 57° Northeast 319 367 20,500 -1,210 Descending Salt Lake Center
Fri 12:59:19 PM 45.2889 -112.4456 60° Northeast 310 357 19,100 -1,210 Descending Salt Lake Center
Fri 01:00:21 PM 45.3264 -112.3503 61° Northeast 295 339 18,000 -1,065 Descending Salt Lake Center
Fri 01:01:23 PM 45.3667 -112.2456 61° Northeast 278 320 16,900 -1,065 Descending Salt Lake Center
Fri 01:02:25 PM 45.3981 -112.1653 61° Northeast 268 308 15,800 -919 Descending Salt Lake Center
Fri 01:03:27 PM 45.4328 -112.0753 61° Northeast 262 302 15,000 -435 Descending Salt Lake Center
Fri 01:04:29 PM 45.4731 -111.9711 61° Northeast 254 292 14,900 -532 Descending Salt Lake Center
Fri 01:05:31 PM 45.5081 -111.8781 62° Northeast 262 302 13,900 -968 Descending Salt Lake Center
Fri 01:06:33 PM 45.5492 -111.7747 60° Northeast 290 334 12,900 -968 Descending Salt Lake Center
Fri 01:07:35 PM 45.6153 -111.7017 38° Northeast 303 349 11,900 -968 Descending Salt Lake Center
Fri 01:08:37 PM 45.6814 -111.6436 32° Northeast 285 328 10,900 -912 Descending Salt Lake Center
Fri 01:09:40 PM 45.7442 -111.5939 29° Northeast 269 310 10,000 -912 Descending Salt Lake Center
Fri 01:10:42 PM 45.8047 -111.5469 28° Northeast 257 296 9,000 -1,065 Descending Salt Lake Center
Fri 01:11:44 PM 45.8717 -111.4903 31° Northeast 241 277 7,800 -726 Descending Salt Lake Center
Fri 01:12:46 PM 45.9186 -111.4319 41° Northeast 229 264 7,500 -339 Descending Salt Lake Center
Fri 01:13:48 PM 45.9264 -111.3617 81° East 197 227 7,100 -435 Descending Salt Lake Center
Fri 01:14:50 PM 45.8867 -111.3053 135° Southeast 202 232 6,600 -532 Descending Salt Lake Center
Fri 01:15:52 PM 45.8461 -111.2483 136° Southeast 205 236 6,000 -677 Descending Salt Lake Center
Fri 01:16:54 PM 45.8175 -111.2092 136° Southeast 169 194 5,200 -726 Descending Salt Lake Center
Fri 01:17:56 PM 45.7878 -111.1667 135° Southeast 158 182 4,500 -677 Descending Salt Lake Center

Login

Don't have an account? Register now (free) for customized features, flight alerts, and more!